Maria — SV7156 — position and weather

sailwx.info

Track history (hours):
 
Tides and Currents Weather Stations Pressure Air Temp Water Temp Dewpoint Dewpoint Depression Visibility Wind Speed Wind Dir Waves Ship Positions

Maria

Last reported at 2014-Jul-19 08:34 UTC. Time now 2014-Jul-23 07:48 UTC.
Position N 37°57' E 023°35'.

Length 74 m; draft 4.5 m.

Type: Ship. MMSI: 237493000.

Date/timePositionNaut miles runAvg speedWind from/ knotsBaromVisibWave heightAir tempDewpointWater temp
2014-Jul-19 08:34N 37°57' E 023°35'1 0.9
2014-Jul-19 07:34N 37°57' E 023°36'0 0.0
2014-Jul-19 06:34N 37°57' E 023°36'0 0.3
2014-Jul-19 05:33N 37°57' E 023°36'1 1.1
2014-Jul-19 04:34N 37°58' E 023°35'0 0.0
2014-Jul-19 03:34N 37°58' E 023°35'0 0.0
2014-Jul-17 12:03N 37°58' E 023°35'2 4.5
2014-Jul-17 11:33N 37°55' E 023°34'2 2.3
2014-Jul-17 10:33N 37°53' E 023°33'0 0.0
2014-Jul-17 09:33N 37°53' E 023°33'0 0.2
2014-Jul-17 08:33N 37°53' E 023°34'4 0.2
2014-Jul-16 12:33N 37°57' E 023°35'3 2.8
2014-Jul-16 11:33N 37°56' E 023°38'0 0.0
2014-Jul-16 10:33N 37°56' E 023°38'0 0.0
2014-Jul-16 09:33N 37°56' E 023°38'0 0.0
2014-Jul-16 08:33N 37°56' E 023°38'0 0.0
2014-Jul-16 07:33N 37°56' E 023°38'2 2.2
2014-Jul-16 06:33N 37°57' E 023°36'1 1.0
2014-Jul-16 05:33N 37°58' E 023°35'1 0.5
2014-Jul-16 04:33N 37°57' E 023°34'5 4.1
2014-Jul-16 03:27N 38°02' E 023°36'0 0.0
2014-Jul-16 02:32N 38°02' E 023°36'0 0.0
2014-Jul-16 01:26N 38°02' E 023°36'0 0.0
2014-Jul-16 00:26N 38°02' E 023°36'0 0.0
2014-Jul-15 23:25N 38°02' E 023°36'0 0.0
2014-Jul-15 22:33N 38°02' E 023°36'0 0.0
2014-Jul-15 21:33N 38°02' E 023°36'3 2.8
2014-Jul-15 20:33N 38°02' E 023°32'0 0.1
2014-Jul-15 19:33N 38°02' E 023°32'0 0.0
2014-Jul-15 18:33N 38°02' E 023°32'0 0.1
2014-Jul-15 17:33N 38°02' E 023°32'0 0.0
2014-Jul-15 16:33N 38°02' E 023°32'0 0.0
2014-Jul-15 15:33N 38°02' E 023°32'0 0.1
2014-Jul-15 14:33N 38°02' E 023°32'0 0.0
2014-Jul-15 13:33N 38°02' E 023°32'2 1.8
2014-Jul-15 12:33N 38°02' E 023°34'0 0.3
2014-Jul-15 11:33N 38°02' E 023°35'0 0.0
2014-Jul-15 10:33N 38°02' E 023°35'0 0.1
2014-Jul-15 09:33N 38°02' E 023°35'0 0.0
2014-Jul-15 08:33N 38°02' E 023°35'  
2014-Jul-13 01:28N 37°51' E 023°33'0 0.3
2014-Jul-13 00:16N 37°51' E 023°33'0 0.1
2014-Jul-12 23:04N 37°51' E 023°33'0 0.1
2014-Jul-12 21:26N 37°52' E 023°32'3 0.4
2014-Jul-12 14:17N 37°54' E 023°34'3 4.3
2014-Jul-12 13:31N 37°58' E 023°35'0 0.0
2014-Jul-12 12:33N 37°58' E 023°35'0 0.0
2014-Jul-12 11:33N 37°58' E 023°35'0 0.0
2014-Jul-12 10:33N 37°58' E 023°35'0 0.0
2014-Jul-12 09:33N 37°58' E 023°35'0 0.1
2014-Jul-12 08:33N 37°58' E 023°35'0 0.0
2014-Jul-12 07:33N 37°58' E 023°35'0 0.0
2014-Jul-12 06:33N 37°58' E 023°35'0 0.0
2014-Jul-12 05:33N 37°58' E 023°35'0 0.1
2014-Jul-12 04:33N 37°58' E 023°35'2 2.3
2014-Jul-12 03:33N 37°59' E 023°33'3 0.9
2014-Jul-12 00:05N 38°02' E 023°31'0 0.0
2014-Jul-11 22:21N 38°02' E 023°31'0 0.0
2014-Jul-11 20:28N 38°02' E 023°31'0 0.0
2014-Jul-11 19:07N 38°02' E 023°31'0 0.2
2014-Jul-11 18:32N 38°02' E 023°31'5 5.3
2014-Jul-11 17:33N 37°57' E 023°34'1 0.8
2014-Jul-11 16:33N 37°58' E 023°35'4 3.6
2014-Jul-11 15:33N 37°54' E 023°33'4 4.3
2014-Jul-11 14:33N 37°50' E 023°31'0 0.0
2014-Jul-11 13:33N 37°50' E 023°31'0 0.0
2014-Jul-11 12:33N 37°50' E 023°31'0 0.3
2014-Jul-11 11:33N 37°51' E 023°31'3 3.0
2014-Jul-11 10:33N 37°53' E 023°33'1 0.5
2014-Jul-11 08:33N 37°54' E 023°34'4 3.7
2014-Jul-11 07:33N 37°58' E 023°35'  
Track history (hours):
 
Tides and Currents Weather Stations Pressure Air Temp Water Temp Dewpoint Dewpoint Depression Visibility Wind Speed Wind Dir Waves Ship Positions

Maria

Last reported at 2014-Jul-19 08:34 UTC. Time now 2014-Jul-23 07:48 UTC.
Position N 37°57' E 023°35'.

Length 74 m; draft 4.5 m.

Type: Ship. MMSI: 237493000.

Date/timePositionNaut miles runAvg speedWind from/ knotsBaromVisibWave heightAir tempDewpointWater temp
2014-Jul-19 08:34N 37°57' E 023°35'1 0.9
2014-Jul-19 07:34N 37°57' E 023°36'0 0.0
2014-Jul-19 06:34N 37°57' E 023°36'0 0.3
2014-Jul-19 05:33N 37°57' E 023°36'1 1.1
2014-Jul-19 04:34N 37°58' E 023°35'0 0.0
2014-Jul-19 03:34N 37°58' E 023°35'0 0.0
2014-Jul-17 12:03N 37°58' E 023°35'2 4.5
2014-Jul-17 11:33N 37°55' E 023°34'2 2.3
2014-Jul-17 10:33N 37°53' E 023°33'0 0.0
2014-Jul-17 09:33N 37°53' E 023°33'0 0.2
2014-Jul-17 08:33N 37°53' E 023°34'4 0.2
2014-Jul-16 12:33N 37°57' E 023°35'3 2.8
2014-Jul-16 11:33N 37°56' E 023°38'0 0.0
2014-Jul-16 10:33N 37°56' E 023°38'0 0.0
2014-Jul-16 09:33N 37°56' E 023°38'0 0.0
2014-Jul-16 08:33N 37°56' E 023°38'0 0.0
2014-Jul-16 07:33N 37°56' E 023°38'2 2.2
2014-Jul-16 06:33N 37°57' E 023°36'1 1.0
2014-Jul-16 05:33N 37°58' E 023°35'1 0.5
2014-Jul-16 04:33N 37°57' E 023°34'5 4.1
2014-Jul-16 03:27N 38°02' E 023°36'0 0.0
2014-Jul-16 02:32N 38°02' E 023°36'0 0.0
2014-Jul-16 01:26N 38°02' E 023°36'0 0.0
2014-Jul-16 00:26N 38°02' E 023°36'0 0.0
2014-Jul-15 23:25N 38°02' E 023°36'0 0.0
2014-Jul-15 22:33N 38°02' E 023°36'0 0.0
2014-Jul-15 21:33N 38°02' E 023°36'3 2.8
2014-Jul-15 20:33N 38°02' E 023°32'0 0.1
2014-Jul-15 19:33N 38°02' E 023°32'0 0.0
2014-Jul-15 18:33N 38°02' E 023°32'0 0.1
2014-Jul-15 17:33N 38°02' E 023°32'0 0.0
2014-Jul-15 16:33N 38°02' E 023°32'0 0.0
2014-Jul-15 15:33N 38°02' E 023°32'0 0.1
2014-Jul-15 14:33N 38°02' E 023°32'0 0.0
2014-Jul-15 13:33N 38°02' E 023°32'2 1.8
2014-Jul-15 12:33N 38°02' E 023°34'0 0.3
2014-Jul-15 11:33N 38°02' E 023°35'0 0.0
2014-Jul-15 10:33N 38°02' E 023°35'0 0.1
2014-Jul-15 09:33N 38°02' E 023°35'0 0.0
2014-Jul-15 08:33N 38°02' E 023°35'  
2014-Jul-13 01:28N 37°51' E 023°33'0 0.3
2014-Jul-13 00:16N 37°51' E 023°33'0 0.1
2014-Jul-12 23:04N 37°51' E 023°33'0 0.1
2014-Jul-12 21:26N 37°52' E 023°32'3 0.4
2014-Jul-12 14:17N 37°54' E 023°34'3 4.3
2014-Jul-12 13:31N 37°58' E 023°35'0 0.0
2014-Jul-12 12:33N 37°58' E 023°35'0 0.0
2014-Jul-12 11:33N 37°58' E 023°35'0 0.0
2014-Jul-12 10:33N 37°58' E 023°35'0 0.0
2014-Jul-12 09:33N 37°58' E 023°35'0 0.1
2014-Jul-12 08:33N 37°58' E 023°35'0 0.0
2014-Jul-12 07:33N 37°58' E 023°35'0 0.0
2014-Jul-12 06:33N 37°58' E 023°35'0 0.0
2014-Jul-12 05:33N 37°58' E 023°35'0 0.1
2014-Jul-12 04:33N 37°58' E 023°35'2 2.3
2014-Jul-12 03:33N 37°59' E 023°33'3 0.9
2014-Jul-12 00:05N 38°02' E 023°31'0 0.0
2014-Jul-11 22:21N 38°02' E 023°31'0 0.0
2014-Jul-11 20:28N 38°02' E 023°31'0 0.0
2014-Jul-11 19:07N 38°02' E 023°31'0 0.2
2014-Jul-11 18:32N 38°02' E 023°31'5 5.3
2014-Jul-11 17:33N 37°57' E 023°34'1 0.8
2014-Jul-11 16:33N 37°58' E 023°35'4 3.6
2014-Jul-11 15:33N 37°54' E 023°33'4 4.3
2014-Jul-11 14:33N 37°50' E 023°31'0 0.0
2014-Jul-11 13:33N 37°50' E 023°31'0 0.0
2014-Jul-11 12:33N 37°50' E 023°31'0 0.3
2014-Jul-11 11:33N 37°51' E 023°31'3 3.0
2014-Jul-11 10:33N 37°53' E 023°33'1 0.5
2014-Jul-11 08:33N 37°54' E 023°34'4 3.7
2014-Jul-11 07:33N 37°58' E 023°35'  

Dump ship's entire track history